Time;durP1;ratioP1;P1;durP2;ratioP2;P2;SDS_P1;SDS_P2;PMS_P1;PMS_P2;Temp;Humidity;BMP_temperature;BMP_pressure;BME280_temperature;BME280_humidity;BME280_pressure;Samples;Min_cycle;Max_cycle;Signal;HPM_P1;HPM_P2
2021/08/26 00:00:17;;;;;;;1.05;1.02;;;;;;;;;;4898642;29;20191;-82
2021/08/26 00:05:48;;;;;;;0.73;0.73;;;;;;;;;;4898690;29;20323;-82
2021/08/26 00:08:17;;;;;;;1.00;1.00;;;;;;;;;;4899116;29;20207;-82
2021/08/26 00:10:45;;;;;;;1.02;1.02;;;;;;;;;;4899209;29;20191;-83
2021/08/26 00:13:14;;;;;;;0.80;0.80;;;;;;;;;;4898910;29;20243;-83
2021/08/26 00:15:45;;;;;;;0.80;0.80;;;;;;;;;;4898485;29;20585;-82
2021/08/26 00:18:13;;;;;;;0.70;0.70;;;;;;;;;;4899011;29;20183;-82
2021/08/26 00:20:41;;;;;;;0.90;0.90;;;;;;;;;;4899104;29;20259;-81
2021/08/26 00:23:08;;;;;;;0.70;0.70;;;;;;;;;;4898536;29;20222;-82
2021/08/26 00:25:36;;;;;;;0.93;0.93;;;;;;;;;;4898877;29;20191;-82
2021/08/26 00:28:04;;;;;;;0.75;0.75;;;;;;;;;;4899092;29;20195;-82
2021/08/26 00:30:33;;;;;;;1.05;0.95;;;;;;;;;;4898811;29;20188;-82
2021/08/26 00:33:01;;;;;;;0.80;0.80;;;;;;;;;;4901746;29;20238;-82
2021/08/26 00:35:28;;;;;;;0.80;0.80;;;;;;;;;;4901998;29;20214;-83
2021/08/26 00:37:55;;;;;;;1.10;1.00;;;;;;;;;;4902142;29;20207;-83
2021/08/26 00:40:23;;;;;;;0.73;0.73;;;;;;;;;;4917564;29;20206;-83
2021/08/26 00:42:50;;;;;;;0.82;0.82;;;;;;;;;;4920982;29;20226;-82
2021/08/26 00:45:19;;;;;;;0.90;0.90;;;;;;;;;;4921524;29;20189;-83
2021/08/26 00:47:49;;;;;;;0.85;0.80;;;;;;;;;;4921472;29;20198;-81
2021/08/26 00:50:17;;;;;;;0.75;0.75;;;;;;;;;;4904932;29;20211;-82
2021/08/26 00:52:46;;;;;;;1.00;1.00;;;;;;;;;;4902189;29;20256;-82
2021/08/26 00:55:15;;;;;;;0.95;0.95;;;;;;;;;;4903098;29;20211;-83
2021/08/26 00:57:43;;;;;;;0.70;0.70;;;;;;;;;;4908898;29;20213;-83
2021/08/26 01:00:13;;;;;;;0.60;0.60;;;;;;;;;;4921421;29;20273;-82
2021/08/26 01:02:52;;;;;;;0.57;0.57;;;;;;;;;;4921436;29;20229;-82
2021/08/26 01:05:25;;;;;;;0.80;0.80;;;;;;;;;;4920928;29;20209;-83
2021/08/26 01:07:59;;;;;;;0.85;0.85;;;;;;;;;;4921613;29;20198;-84
2021/08/26 01:10:27;;;;;;;0.80;0.80;;;;;;;;;;4921432;29;20195;-83
2021/08/26 01:12:56;;;;;;;0.88;0.70;;;;;;;;;;4921423;29;20237;-83
2021/08/26 01:15:26;;;;;;;0.80;0.80;;;;;;;;;;4921770;29;20638;-83
2021/08/26 01:17:56;;;;;;;0.50;0.50;;;;;;;;;;4921428;29;20695;-82
2021/08/26 01:20:24;;;;;;;0.70;0.70;;;;;;;;;;4920518;29;20691;-83
2021/08/26 01:22:51;;;;;;;1.10;1.00;;;;;;;;;;4920825;29;20278;-80
2021/08/26 01:25:23;;;;;;;0.73;0.73;;;;;;;;;;4920589;29;20201;-82
2021/08/26 01:27:56;;;;;;;0.93;0.93;;;;;;;;;;4920975;29;20194;-82
2021/08/26 01:30:29;;;;;;;0.50;0.50;;;;;;;;;;4921833;29;20206;-83
2021/08/26 01:33:01;;;;;;;0.60;0.60;;;;;;;;;;4919106;29;20231;-82
2021/08/26 01:35:29;;;;;;;4.53;4.13;;;;;;;;;;4914770;29;20217;-83
2021/08/26 01:37:57;;;;;;;1.38;1.27;;;;;;;;;;4908841;29;20204;-80
2021/08/26 01:40:36;;;;;;;0.70;0.70;;;;;;;;;;4916621;29;20237;-82
2021/08/26 01:43:09;;;;;;;1.02;1.02;;;;;;;;;;4907325;29;20572;-81
2021/08/26 01:45:37;;;;;;;0.80;0.80;;;;;;;;;;4920660;29;20808;-81
2021/08/26 01:48:05;;;;;;;0.95;0.95;;;;;;;;;;4920643;29;20195;-82
2021/08/26 01:50:33;;;;;;;1.30;1.20;;;;;;;;;;4920540;29;20191;-81
2021/08/26 01:53:01;;;;;;;1.23;1.15;;;;;;;;;;4931288;23;20330;-82
2021/08/26 01:55:29;;;;;;;1.23;1.08;;;;;;;;;;4911022;29;20211;-83
2021/08/26 01:57:56;;;;;;;1.50;1.40;;;;;;;;;;4897953;29;20191;-82
2021/08/26 02:00:25;;;;;;;1.50;1.40;;;;;;;;;;4911952;29;20209;-82
2021/08/26 02:02:52;;;;;;;1.60;1.50;;;;;;;;;;4917259;29;20261;-82
2021/08/26 02:05:20;;;;;;;3.20;2.53;;;;;;;;;;4916017;29;20578;-81
2021/08/26 02:07:47;;;;;;;0.90;0.90;;;;;;;;;;4917269;29;20210;-82
2021/08/26 02:10:15;;;;;;;1.63;1.20;;;;;;;;;;4917032;29;20190;-81
2021/08/26 02:12:43;;;;;;;1.50;1.40;;;;;;;;;;4916638;29;20226;-82
2021/08/26 02:15:12;;;;;;;1.42;1.33;;;;;;;;;;4916276;29;20217;-81
2021/08/26 02:17:41;;;;;;;1.25;1.15;;;;;;;;;;4917311;29;20190;-82
2021/08/26 02:20:09;;;;;;;1.45;1.35;;;;;;;;;;4916104;29;20571;-83
2021/08/26 02:22:38;;;;;;;1.73;1.63;;;;;;;;;;4915273;29;20237;-83
2021/08/26 02:25:07;;;;;;;3.17;1.45;;;;;;;;;;4916715;29;20198;-83
2021/08/26 02:27:34;;;;;;;1.90;1.50;;;;;;;;;;4913504;29;20201;-82
2021/08/26 02:30:02;;;;;;;2.38;1.67;;;;;;;;;;4916631;29;20209;-83
2021/08/26 02:32:30;;;;;;;1.65;1.40;;;;;;;;;;4903676;29;20238;-82
2021/08/26 02:34:59;;;;;;;6.55;1.75;;;;;;;;;;4904859;29;21345;-82
2021/08/26 02:37:27;;;;;;;1.70;1.40;;;;;;;;;;4897402;29;20196;-82
2021/08/26 02:39:55;;;;;;;1.33;1.23;;;;;;;;;;4897389;29;20206;-82
2021/08/26 02:42:22;;;;;;;2.03;1.52;;;;;;;;;;4911763;29;20218;-82
2021/08/26 02:44:49;;;;;;;1.80;1.42;;;;;;;;;;4915962;29;20187;-82
2021/08/26 02:47:17;;;;;;;1.60;1.50;;;;;;;;;;4915487;29;20210;-83
2021/08/26 02:49:44;;;;;;;1.77;1.52;;;;;;;;;;4916578;29;20563;-82
2021/08/26 02:52:13;;;;;;;1.73;1.45;;;;;;;;;;4915842;29;20210;-83
2021/08/26 02:54:41;;;;;;;1.70;1.50;;;;;;;;;;4914862;29;20705;-82
2021/08/26 02:57:08;;;;;;;1.80;1.70;;;;;;;;;;4916778;29;20570;-81
2021/08/26 02:59:36;;;;;;;2.20;1.52;;;;;;;;;;4916414;29;20183;-82
2021/08/26 03:02:03;;;;;;;1.63;1.50;;;;;;;;;;4915973;29;20202;-82
2021/08/26 03:04:31;;;;;;;1.98;1.35;;;;;;;;;;4915128;29;20226;-82
2021/08/26 03:06:58;;;;;;;1.85;1.58;;;;;;;;;;4915461;29;20683;-82
2021/08/26 03:09:27;;;;;;;1.70;1.60;;;;;;;;;;4904599;29;20213;-82
2021/08/26 03:11:55;;;;;;;2.20;1.77;;;;;;;;;;4915905;29;20194;-81
2021/08/26 03:14:22;;;;;;;2.05;1.60;;;;;;;;;;4915516;29;20237;-84
2021/08/26 03:16:50;;;;;;;1.67;1.58;;;;;;;;;;4914976;29;20656;-81
2021/08/26 03:19:17;;;;;;;1.60;1.50;;;;;;;;;;4915014;29;20289;-81
2021/08/26 03:21:45;;;;;;;2.10;1.90;;;;;;;;;;4914513;29;20187;-81
2021/08/26 03:24:12;;;;;;;2.28;1.65;;;;;;;;;;4913716;29;20222;-81
2021/08/26 03:26:41;;;;;;;2.58;1.83;;;;;;;;;;4913651;29;20187;-81
2021/08/26 03:29:08;;;;;;;3.72;1.90;;;;;;;;;;4913784;29;20222;-82
2021/08/26 03:31:36;;;;;;;2.45;2.25;;;;;;;;;;4914007;29;20222;-81
2021/08/26 03:34:03;;;;;;;3.42;2.53;;;;;;;;;;4914229;29;20222;-82
2021/08/26 03:36:31;;;;;;;1.88;1.65;;;;;;;;;;4914864;29;20198;-82
2021/08/26 03:38:58;;;;;;;2.30;2.10;;;;;;;;;;4915236;29;20205;-82
2021/08/26 03:41:26;;;;;;;2.72;2.17;;;;;;;;;;4915954;29;20269;-82
2021/08/26 03:43:55;;;;;;;3.15;1.98;;;;;;;;;;4914989;29;20221;-81
2021/08/26 03:46:22;;;;;;;2.47;2.00;;;;;;;;;;4914893;29;20559;-81
2021/08/26 03:48:50;;;;;;;2.58;1.92;;;;;;;;;;4915502;29;20187;-81
2021/08/26 03:51:17;;;;;;;1.73;1.63;;;;;;;;;;4915411;29;20230;-81
2021/08/26 03:53:44;;;;;;;3.13;1.55;;;;;;;;;;4914075;29;20239;-81
2021/08/26 03:56:12;;;;;;;3.08;1.92;;;;;;;;;;4914352;29;20229;-81
2021/08/26 03:58:39;;;;;;;1.85;1.65;;;;;;;;;;4915156;29;20194;-81
2021/08/26 04:01:09;;;;;;;1.88;1.67;;;;;;;;;;4915236;29;20202;-81
2021/08/26 04:03:36;;;;;;;2.42;1.65;;;;;;;;;;4915570;29;20591;-81
2021/08/26 04:06:04;;;;;;;2.08;1.52;;;;;;;;;;4913931;29;20630;-81
2021/08/26 04:08:32;;;;;;;1.67;1.33;;;;;;;;;;4914699;29;20573;-81
2021/08/26 04:10:59;;;;;;;4.18;1.50;;;;;;;;;;4914537;29;20683;-81
2021/08/26 04:13:26;;;;;;;4.75;2.38;;;;;;;;;;4914244;29;20238;-82
2021/08/26 04:15:54;;;;;;;2.80;1.52;;;;;;;;;;4914151;29;20214;-81
2021/08/26 04:18:23;;;;;;;1.67;1.55;;;;;;;;;;4914885;29;20202;-81
2021/08/26 04:20:50;;;;;;;2.65;1.45;;;;;;;;;;4914988;29;20215;-81
2021/08/26 04:23:17;;;;;;;2.55;1.88;;;;;;;;;;4914537;29;20238;-82
2021/08/26 04:25:45;;;;;;;6.45;1.73;;;;;;;;;;4914091;29;20207;-81
2021/08/26 04:28:12;;;;;;;3.90;1.75;;;;;;;;;;4914899;29;20212;-82
2021/08/26 04:30:40;;;;;;;1.75;1.45;;;;;;;;;;4914536;29;20282;-82
2021/08/26 04:33:07;;;;;;;4.88;1.92;;;;;;;;;;4914777;29;20330;-82
2021/08/26 04:35:36;;;;;;;1.48;1.38;;;;;;;;;;4915159;29;20217;-82
2021/08/26 04:38:04;;;;;;;1.83;1.48;;;;;;;;;;4916396;29;20583;-82
2021/08/26 04:40:31;;;;;;;2.33;1.70;;;;;;;;;;4915204;29;20198;-82
2021/08/26 04:42:59;;;;;;;4.70;1.55;;;;;;;;;;4914609;29;20222;-81
2021/08/26 04:45:26;;;;;;;3.25;1.90;;;;;;;;;;4913987;29;20665;-82
2021/08/26 04:47:54;;;;;;;4.10;1.92;;;;;;;;;;4914588;29;20197;-82
2021/08/26 04:50:22;;;;;;;3.97;2.10;;;;;;;;;;4917107;29;20183;-82
2021/08/26 04:52:51;;;;;;;3.28;2.35;;;;;;;;;;4914839;29;20238;-82
2021/08/26 04:55:24;;;;;;;3.40;3.05;;;;;;;;;;4914241;29;20230;-82
2021/08/26 04:57:51;;;;;;;2.53;1.60;;;;;;;;;;4914106;29;20206;-82
2021/08/26 05:00:19;;;;;;;2.90;1.98;;;;;;;;;;4914700;29;20221;-82
2021/08/26 05:02:46;;;;;;;2.95;1.77;;;;;;;;;;4915345;29;20707;-81
2021/08/26 05:05:14;;;;;;;3.35;2.05;;;;;;;;;;4913070;29;20210;-81
2021/08/26 05:07:41;;;;;;;3.42;1.70;;;;;;;;;;4914236;29;20661;-82
2021/08/26 05:10:12;;;;;;;2.35;1.40;;;;;;;;;;4914400;29;20293;-81
2021/08/26 05:12:40;;;;;;;1.40;1.30;;;;;;;;;;4913810;29;20799;-81
2021/08/26 05:15:09;;;;;;;2.40;1.50;;;;;;;;;;4914730;29;20195;-81
2021/08/26 05:17:36;;;;;;;3.65;1.80;;;;;;;;;;4915999;29;20217;-81
2021/08/26 05:20:04;;;;;;;2.65;1.90;;;;;;;;;;4917550;29;20299;-82
2021/08/26 05:22:32;;;;;;;3.30;1.90;;;;;;;;;;4917133;29;20233;-82
2021/08/26 05:24:59;;;;;;;3.58;1.70;;;;;;;;;;4918339;29;20190;-82
2021/08/26 05:27:28;;;;;;;7.65;2.45;;;;;;;;;;4917985;29;20191;-81
2021/08/26 05:29:56;;;;;;;2.53;1.92;;;;;;;;;;4919070;29;20211;-81
2021/08/26 05:32:29;;;;;;;2.50;1.65;;;;;;;;;;4920987;29;20186;-82
2021/08/26 05:34:57;;;;;;;3.42;2.03;;;;;;;;;;4917532;29;20210;-81
2021/08/26 05:37:26;;;;;;;3.60;1.65;;;;;;;;;;4917264;29;20230;-81
2021/08/26 05:39:53;;;;;;;2.70;2.22;;;;;;;;;;4918204;29;20321;-81
2021/08/26 05:42:23;;;;;;;2.88;1.83;;;;;;;;;;4916958;29;20686;-81
2021/08/26 05:44:52;;;;;;;2.45;1.88;;;;;;;;;;4917350;29;20289;-81
2021/08/26 05:47:19;;;;;;;2.13;1.80;;;;;;;;;;4916521;29;20936;-83
2021/08/26 05:49:47;;;;;;;4.05;2.45;;;;;;;;;;4917388;29;20191;-82
2021/08/26 05:52:14;;;;;;;3.90;2.30;;;;;;;;;;4917209;29;20191;-82
2021/08/26 05:54:41;;;;;;;3.22;2.17;;;;;;;;;;4916505;29;20242;-82
2021/08/26 05:57:09;;;;;;;5.03;2.25;;;;;;;;;;4917716;29;20574;-82
2021/08/26 05:59:36;;;;;;;2.22;2.03;;;;;;;;;;4917504;29;20563;-82
2021/08/26 06:02:05;;;;;;;3.00;1.88;;;;;;;;;;4917818;29;20590;-82
2021/08/26 06:04:33;;;;;;;5.63;2.50;;;;;;;;;;4917821;29;20233;-83
2021/08/26 06:07:00;;;;;;;3.22;2.40;;;;;;;;;;4919649;29;20218;-81
2021/08/26 06:09:28;;;;;;;3.75;2.30;;;;;;;;;;4919320;29;20274;-82
2021/08/26 06:11:55;;;;;;;2.83;2.63;;;;;;;;;;4919143;29;20215;-82
2021/08/26 06:14:23;;;;;;;5.47;2.70;;;;;;;;;;4901908;29;20218;-83
2021/08/26 06:16:50;;;;;;;4.53;2.55;;;;;;;;;;4900764;29;20231;-82
2021/08/26 06:19:19;;;;;;;5.60;2.75;;;;;;;;;;4900642;29;20191;-83
2021/08/26 06:21:46;;;;;;;5.20;2.72;;;;;;;;;;4899746;29;20194;-82
2021/08/26 06:24:14;;;;;;;4.80;2.45;;;;;;;;;;4915013;29;20723;-83
2021/08/26 06:26:42;;;;;;;2.75;2.45;;;;;;;;;;4918835;29;20209;-83
2021/08/26 06:29:09;;;;;;;3.15;2.05;;;;;;;;;;4918172;29;20218;-82
2021/08/26 06:31:37;;;;;;;2.50;2.30;;;;;;;;;;4918736;29;20228;-83
2021/08/26 06:34:04;;;;;;;3.10;2.28;;;;;;;;;;4904026;29;20223;-82
2021/08/26 06:36:33;;;;;;;3.03;2.03;;;;;;;;;;4899646;29;20231;-83
2021/08/26 06:39:00;;;;;;;4.05;2.25;;;;;;;;;;4899905;29;20666;-83
2021/08/26 06:41:28;;;;;;;3.00;2.20;;;;;;;;;;4900164;29;20207;-83
2021/08/26 06:43:55;;;;;;;4.10;2.55;;;;;;;;;;4913857;29;20281;-83
2021/08/26 06:46:23;;;;;;;2.08;1.88;;;;;;;;;;4918464;29;20224;-85
2021/08/26 06:48:51;;;;;;;4.43;2.35;;;;;;;;;;4918633;29;20209;-83
2021/08/26 06:51:20;;;;;;;3.17;2.10;;;;;;;;;;4919046;29;20233;-83
2021/08/26 06:53:50;;;;;;;6.68;2.65;;;;;;;;;;4918205;29;20246;-83
2021/08/26 06:56:18;;;;;;;3.42;2.38;;;;;;;;;;4918729;29;20202;-82
2021/08/26 06:58:45;;;;;;;2.40;2.10;;;;;;;;;;4918574;29;20269;-83
2021/08/26 07:01:13;;;;;;;2.85;2.20;;;;;;;;;;4918788;29;20210;-83
2021/08/26 07:03:40;;;;;;;5.47;2.67;;;;;;;;;;4907533;29;20231;-83
2021/08/26 07:06:08;;;;;;;4.03;2.97;;;;;;;;;;4900402;29;20294;-84
2021/08/26 07:08:35;;;;;;;2.78;2.50;;;;;;;;;;4901068;29;20192;-84
2021/08/26 07:11:04;;;;;;;5.13;3.03;;;;;;;;;;4900064;29;20199;-83
2021/08/26 07:13:32;;;;;;;5.10;2.65;;;;;;;;;;4909695;29;20270;-83
2021/08/26 07:15:59;;;;;;;3.53;2.20;;;;;;;;;;4919422;29;20281;-83
2021/08/26 07:18:28;;;;;;;5.18;2.63;;;;;;;;;;4918913;29;20206;-82
2021/08/26 07:20:56;;;;;;;4.18;2.28;;;;;;;;;;4918481;29;20646;-83
2021/08/26 07:23:23;;;;;;;2.72;2.38;;;;;;;;;;4918507;29;20726;-83
2021/08/26 07:25:50;;;;;;;2.60;2.08;;;;;;;;;;4918459;29;20218;-83
2021/08/26 07:28:19;;;;;;;3.05;1.75;;;;;;;;;;4918011;29;20636;-84
2021/08/26 07:30:47;;;;;;;4.68;1.80;;;;;;;;;;4918619;29;20206;-84
2021/08/26 07:33:14;;;;;;;2.80;2.20;;;;;;;;;;4909374;29;20792;-83
2021/08/26 07:35:42;;;;;;;4.03;2.40;;;;;;;;;;4901242;29;20277;-84
2021/08/26 07:38:09;;;;;;;4.43;2.45;;;;;;;;;;4900533;29;20222;-84
2021/08/26 07:40:37;;;;;;;5.85;2.58;;;;;;;;;;4900357;29;20190;-83
2021/08/26 07:43:05;;;;;;;3.83;2.60;;;;;;;;;;4907906;29;20218;-84
2021/08/26 07:45:33;;;;;;;3.90;2.35;;;;;;;;;;4920190;29;20187;-85
2021/08/26 07:48:01;;;;;;;3.20;1.83;;;;;;;;;;4920694;29;20191;-84
2021/08/26 07:50:28;;;;;;;3.03;2.50;;;;;;;;;;4909753;29;20214;-83
2021/08/26 07:52:56;;;;;;;2.40;2.10;;;;;;;;;;4900320;29;20234;-84
2021/08/26 07:55:23;;;;;;;2.00;1.83;;;;;;;;;;4899931;29;20207;-84
2021/08/26 07:57:51;;;;;;;4.28;2.35;;;;;;;;;;4900137;29;20222;-84
2021/08/26 08:00:19;;;;;;;5.45;2.33;;;;;;;;;;4900504;29;20211;-84
2021/08/26 08:02:48;;;;;;;4.22;2.05;;;;;;;;;;4904914;29;20217;-86
2021/08/26 08:05:15;;;;;;;3.45;2.63;;;;;;;;;;4923242;29;20194;-83
2021/08/26 08:07:45;;;;;;;2.47;2.10;;;;;;;;;;4923245;29;20201;-83
2021/08/26 08:10:13;;;;;;;6.75;2.42;;;;;;;;;;4919179;29;20245;-83
2021/08/26 08:12:41;;;;;;;2.22;1.75;;;;;;;;;;4914646;29;20710;-82
2021/08/26 08:15:10;;;;;;;3.95;3.13;;;;;;;;;;4899947;29;20191;-83
2021/08/26 08:17:38;;;;;;;3.75;2.20;;;;;;;;;;4900164;29;20212;-83
2021/08/26 08:20:10;;;;;;;3.45;2.47;;;;;;;;;;4903759;29;20194;-85
2021/08/26 08:22:38;;;;;;;6.10;2.35;;;;;;;;;;4909284;29;20234;-83
2021/08/26 08:25:07;;;;;;;3.03;2.55;;;;;;;;;;4914571;29;20191;-85
2021/08/26 08:27:35;;;;;;;2.55;2.20;;;;;;;;;;4915906;29;20202;-86
2021/08/26 08:30:03;;;;;;;4.50;2.30;;;;;;;;;;4913809;29;20278;-87
2021/08/26 08:32:31;;;;;;;4.03;2.80;;;;;;;;;;4900054;29;20227;-87
2021/08/26 08:34:58;;;;;;;2.42;1.60;;;;;;;;;;4918998;29;20210;-83
2021/08/26 08:37:27;;;;;;;2.25;2.05;;;;;;;;;;4920384;29;20221;-83
2021/08/26 08:39:54;;;;;;;4.45;2.63;;;;;;;;;;4902725;29;20590;-84
2021/08/26 08:42:23;;;;;;;2.70;1.70;;;;;;;;;;4902098;29;20187;-83
2021/08/26 08:44:50;;;;;;;5.38;2.75;;;;;;;;;;4919506;29;20201;-83
2021/08/26 08:47:19;;;;;;;10.40;2.55;;;;;;;;;;4919327;29;20190;-84
2021/08/26 08:49:50;;;;;;;3.15;2.10;;;;;;;;;;4919781;29;20558;-84
2021/08/26 08:52:18;;;;;;;4.57;2.08;;;;;;;;;;4918892;29;20695;-84
2021/08/26 08:54:47;;;;;;;5.20;2.47;;;;;;;;;;4922641;29;20190;-84
2021/08/26 08:57:15;;;;;;;2.47;2.17;;;;;;;;;;4922710;29;20604;-85
2021/08/26 08:59:42;;;;;;;2.10;1.50;;;;;;;;;;4923146;29;20221;-83
2021/08/26 09:02:10;;;;;;;3.78;2.40;;;;;;;;;;4922230;29;20195;-84
2021/08/26 09:04:56;;;;;;;5.45;2.33;;;;;;;;;;4903393;29;20196;-84
2021/08/26 09:07:28;;;;;;;3.15;2.13;;;;;;;;;;4909974;29;20198;-84
2021/08/26 09:09:57;;;;;;;6.40;3.22;;;;;;;;;;4906711;29;20206;-84
2021/08/26 09:12:47;;;;;;;1.92;1.83;;;;;;;;;;4904890;29;20210;-83
2021/08/26 09:15:18;;;;;;;8.40;5.05;;;;;;;;;;4915229;29;20283;-83
2021/08/26 09:17:47;;;;;;;2.78;2.58;;;;;;;;;;4903319;29;20623;-84
2021/08/26 09:20:18;;;;;;;2.85;2.20;;;;;;;;;;4903923;29;20196;-84
2021/08/26 09:22:46;;;;;;;3.42;2.45;;;;;;;;;;4907121;29;20581;-84
2021/08/26 09:25:23;;;;;;;2.38;1.70;;;;;;;;;;4922852;29;20217;-84
2021/08/26 09:27:51;;;;;;;2.33;2.00;;;;;;;;;;4922979;29;20245;-84
2021/08/26 09:30:26;;;;;;;2.22;1.50;;;;;;;;;;4923215;29;20189;-85
2021/08/26 09:33:00;;;;;;;4.82;1.98;;;;;;;;;;4918610;29;20226;-84
2021/08/26 09:35:30;;;;;;;4.30;3.03;;;;;;;;;;4920388;29;20652;-84
2021/08/26 09:38:00;;;;;;;3.47;2.10;;;;;;;;;;4921049;29;20230;-84
2021/08/26 09:40:31;;;;;;;3.83;2.65;;;;;;;;;;4920285;29;20198;-83
2021/08/26 09:43:03;;;;;;;3.60;2.00;;;;;;;;;;4919831;29;20225;-84
2021/08/26 09:45:33;;;;;;;3.53;2.17;;;;;;;;;;4919958;29;20218;-83
2021/08/26 09:48:06;;;;;;;3.60;2.17;;;;;;;;;;4919167;29;20200;-85
2021/08/26 09:50:52;;;;;;;2.30;2.00;;;;;;;;;;4912661;29;20278;-84
2021/08/26 09:53:21;;;;;;;2.60;1.83;;;;;;;;;;4911073;29;20234;-83
2021/08/26 09:56:03;;;;;;;4.07;2.20;;;;;;;;;;4903035;29;20783;-83
2021/08/26 09:58:32;;;;;;;3.35;2.33;;;;;;;;;;4901361;29;20203;-85
2021/08/26 10:01:14;;;;;;;3.17;2.05;;;;;;;;;;4907601;29;20202;-83
2021/08/26 10:03:43;;;;;;;3.03;2.28;;;;;;;;;;4919368;29;20726;-83
2021/08/26 10:06:12;;;;;;;4.45;2.03;;;;;;;;;;4920441;29;20190;-83
2021/08/26 10:08:42;;;;;;;2.13;1.73;;;;;;;;;;4919467;29;20187;-84
2021/08/26 10:11:14;;;;;;;4.43;2.28;;;;;;;;;;4920142;29;20218;-84
2021/08/26 10:13:42;;;;;;;1.83;1.52;;;;;;;;;;4913988;29;20225;-83
2021/08/26 10:16:09;;;;;;;4.80;2.03;;;;;;;;;;4919773;29;20241;-83
2021/08/26 10:18:37;;;;;;;4.75;3.15;;;;;;;;;;4916769;29;20218;-83
2021/08/26 10:21:07;;;;;;;4.43;1.73;;;;;;;;;;4918944;29;20202;-83
2021/08/26 10:23:38;;;;;;;3.38;1.80;;;;;;;;;;4919011;29;20226;-86
2021/08/26 10:26:07;;;;;;;2.58;1.63;;;;;;;;;;4919334;29;20293;-84
2021/08/26 10:28:42;;;;;;;3.45;1.80;;;;;;;;;;4919755;29;20668;-85
2021/08/26 10:31:30;;;;;;;2.85;2.10;;;;;;;;;;4920418;29;20202;-84
2021/08/26 10:34:14;;;;;;;2.58;1.98;;;;;;;;;;4915238;29;20226;-83
2021/08/26 10:36:47;;;;;;;2.38;1.83;;;;;;;;;;4919382;29;20191;-84
2021/08/26 10:39:29;;;;;;;3.38;2.45;;;;;;;;;;4920625;29;20237;-85
2021/08/26 10:41:57;;;;;;;2.65;1.95;;;;;;;;;;4920890;29;20194;-83
2021/08/26 10:45:00;;;;;;;2.42;1.67;;;;;;;;;;4920315;29;20301;-84
2021/08/26 10:48:16;;;;;;;2.08;1.70;;;;;;;;;;4918134;29;20202;-87
2021/08/26 10:50:48;;;;;;;2.53;1.77;;;;;;;;;;4918731;29;20203;-83
2021/08/26 10:53:28;;;;;;;1.73;1.55;;;;;;;;;;4918548;29;20314;-85
2021/08/26 10:55:57;;;;;;;3.38;2.30;;;;;;;;;;4917733;29;20242;-85
2021/08/26 11:02:40;;;;;;;2.25;1.77;;;;;;;;;;4917917;29;20791;-86
2021/08/26 11:05:34;;;;;;;1.75;1.63;;;;;;;;;;4899134;29;20207;-87
2021/08/26 11:08:03;;;;;;;4.03;2.40;;;;;;;;;;4899359;29;20665;-84
2021/08/26 11:10:31;;;;;;;1.52;1.42;;;;;;;;;;4899762;29;20572;-85
2021/08/26 11:13:32;;;;;;;2.20;1.75;;;;;;;;;;4901967;29;20238;-86
2021/08/26 11:16:35;;;;;;;3.33;1.70;;;;;;;;;;4918934;29;20202;-84
2021/08/26 11:19:30;;;;;;;4.40;2.13;;;;;;;;;;4918108;29;20225;-86
2021/08/26 11:22:06;;;;;;;4.65;2.75;;;;;;;;;;4917520;29;20246;-85
2021/08/26 11:25:02;;;;;;;2.85;1.35;;;;;;;;;;4917107;29;20222;-84
2021/08/26 11:27:32;;;;;;;2.78;2.00;;;;;;;;;;4918542;29;20209;-85
2021/08/26 11:30:18;;;;;;;3.38;1.80;;;;;;;;;;4917192;29;20297;-86
2021/08/26 11:32:46;;;;;;;5.97;2.35;;;;;;;;;;4920247;29;20233;-85
2021/08/26 11:35:15;;;;;;;5.57;1.67;;;;;;;;;;4915279;29;20207;-89
2021/08/26 11:37:42;;;;;;;1.98;1.88;;;;;;;;;;4911397;29;20206;-84
2021/08/26 11:40:13;;;;;;;3.70;2.20;;;;;;;;;;4913309;29;20306;-85
2021/08/26 11:42:44;;;;;;;3.67;2.25;;;;;;;;;;4914421;29;20228;-84
2021/08/26 11:46:22;;;;;;;3.00;2.35;;;;;;;;;;4913931;29;20209;-85
2021/08/26 11:48:59;;;;;;;1.92;1.40;;;;;;;;;;4897898;29;20271;-86
2021/08/26 11:51:32;;;;;;;3.30;1.70;;;;;;;;;;4904933;29;20202;-85
2021/08/26 11:54:21;;;;;;;1.42;1.33;;;;;;;;;;4917597;29;20238;-85
2021/08/26 11:56:52;;;;;;;2.63;1.52;;;;;;;;;;4914507;29;20207;-84
2021/08/26 11:59:32;;;;;;;1.48;1.33;;;;;;;;;;4900573;29;20603;-83
2021/08/26 12:02:21;;;;;;;1.55;1.30;;;;;;;;;;4899331;29;20193;-84
2021/08/26 12:04:51;;;;;;;2.45;1.40;;;;;;;;;;4900388;29;20270;-83
2021/08/26 12:07:29;;;;;;;1.73;1.30;;;;;;;;;;4900225;29;20199;-83
2021/08/26 12:09:58;;;;;;;2.60;1.73;;;;;;;;;;4899795;29;20206;-85
2021/08/26 12:12:26;;;;;;;1.83;1.70;;;;;;;;;;4899524;29;20195;-84
2021/08/26 12:14:54;;;;;;;2.33;1.80;;;;;;;;;;4899353;29;20668;-83
2021/08/26 12:17:22;;;;;;;1.63;1.52;;;;;;;;;;4899062;29;20662;-83
2021/08/26 12:19:53;;;;;;;2.05;1.30;;;;;;;;;;4899419;29;20211;-84
2021/08/26 12:22:24;;;;;;;3.40;2.45;;;;;;;;;;4898718;29;20266;-84
2021/08/26 12:24:54;;;;;;;5.68;2.35;;;;;;;;;;4898695;29;20195;-82
2021/08/26 12:27:22;;;;;;;1.90;1.80;;;;;;;;;;4898837;29;20203;-84
2021/08/26 12:29:51;;;;;;;2.28;1.83;;;;;;;;;;4898727;29;20270;-87
2021/08/26 12:32:43;;;;;;;2.88;1.77;;;;;;;;;;4901171;29;20560;-88
2021/08/26 12:35:16;;;;;;;1.52;1.42;;;;;;;;;;4916036;29;20688;-86
2021/08/26 12:37:55;;;;;;;2.85;1.85;;;;;;;;;;4918111;29;20195;-83
2021/08/26 12:40:24;;;;;;;1.95;1.50;;;;;;;;;;4916904;29;20246;-84
2021/08/26 12:43:05;;;;;;;2.28;1.80;;;;;;;;;;4915837;29;20231;-84
2021/08/26 12:45:35;;;;;;;3.40;1.92;;;;;;;;;;4916192;29;20246;-86
2021/08/26 12:48:25;;;;;;;3.10;1.23;;;;;;;;;;4917486;29;20203;-85
2021/08/26 12:51:09;;;;;;;2.08;1.30;;;;;;;;;;4915503;29;20242;-84
2021/08/26 12:53:39;;;;;;;2.00;1.55;;;;;;;;;;4914909;29;20242;-84
2021/08/26 12:56:09;;;;;;;1.30;1.20;;;;;;;;;;4916746;29;20194;-84
2021/08/26 12:58:37;;;;;;;1.20;1.15;;;;;;;;;;4916673;29;20198;-83
2021/08/26 13:01:19;;;;;;;1.73;1.42;;;;;;;;;;4916721;29;20301;-84
2021/08/26 13:03:50;;;;;;;2.00;1.40;;;;;;;;;;4911723;29;20305;-84
2021/08/26 13:06:37;;;;;;;3.00;1.52;;;;;;;;;;4902656;29;20234;-84
2021/08/26 13:09:08;;;;;;;1.45;1.20;;;;;;;;;;4904175;29;20184;-84
2021/08/26 13:11:38;;;;;;;1.60;1.15;;;;;;;;;;4902142;29;20666;-84
2021/08/26 13:14:06;;;;;;;1.58;1.35;;;;;;;;;;4899918;29;20680;-85
2021/08/26 13:16:34;;;;;;;1.70;1.33;;;;;;;;;;4898383;29;20230;-85
2021/08/26 13:19:02;;;;;;;1.23;1.17;;;;;;;;;;4897641;29;20221;-85
2021/08/26 13:21:29;;;;;;;1.75;1.50;;;;;;;;;;4898165;29;20229;-86
2021/08/26 13:23:58;;;;;;;1.50;1.38;;;;;;;;;;4897525;29;20233;-83
2021/08/26 13:26:27;;;;;;;1.70;1.60;;;;;;;;;;4898580;29;20194;-84
2021/08/26 13:28:55;;;;;;;1.52;1.42;;;;;;;;;;4899303;29;20564;-84
2021/08/26 13:31:24;;;;;;;1.88;1.35;;;;;;;;;;4898675;29;20207;-83
2021/08/26 13:33:52;;;;;;;2.08;1.90;;;;;;;;;;4898642;29;20668;-84
2021/08/26 13:36:20;;;;;;;1.40;1.30;;;;;;;;;;4897942;29;20196;-84
2021/08/26 13:38:47;;;;;;;1.52;1.38;;;;;;;;;;4898813;29;20191;-83
2021/08/26 13:41:15;;;;;;;1.60;1.35;;;;;;;;;;4900966;29;20887;-86
2021/08/26 13:43:46;;;;;;;2.03;1.63;;;;;;;;;;4900634;29;20262;-85
2021/08/26 13:46:14;;;;;;;1.95;1.33;;;;;;;;;;4920369;29;20218;-85
2021/08/26 13:48:44;;;;;;;1.50;1.40;;;;;;;;;;4920407;29;20594;-85
2021/08/26 13:51:11;;;;;;;1.77;1.30;;;;;;;;;;4919511;29;20638;-84
2021/08/26 13:53:46;;;;;;;3.13;1.60;;;;;;;;;;4904888;29;20285;-82
2021/08/26 13:56:14;;;;;;;2.03;1.50;;;;;;;;;;4901769;29;20211;-81
2021/08/26 13:58:43;;;;;;;2.75;1.63;;;;;;;;;;4901863;29;20255;-84
2021/08/26 14:01:13;;;;;;;1.52;1.40;;;;;;;;;;4902541;29;20222;-83
2021/08/26 14:03:41;;;;;;;2.38;1.55;;;;;;;;;;4901811;29;20255;-83
2021/08/26 14:06:12;;;;;;;2.63;1.75;;;;;;;;;;4902029;29;20207;-83
2021/08/26 14:08:40;;;;;;;3.90;2.05;;;;;;;;;;4902318;29;20196;-83
2021/08/26 14:11:08;;;;;;;2.90;2.53;;;;;;;;;;4902147;29;20202;-84
2021/08/26 14:13:37;;;;;;;1.38;1.23;;;;;;;;;;4901523;29;20302;-84
2021/08/26 14:16:06;;;;;;;3.22;2.05;;;;;;;;;;4901575;29;20198;-83
2021/08/26 14:18:34;;;;;;;1.63;1.50;;;;;;;;;;4900857;29;20568;-83
2021/08/26 14:21:01;;;;;;;2.20;1.50;;;;;;;;;;4901192;29;20235;-82
2021/08/26 14:23:29;;;;;;;1.90;1.40;;;;;;;;;;4902056;29;20310;-84
2021/08/26 14:25:57;;;;;;;1.85;1.40;;;;;;;;;;4901491;29;20623;-85
2021/08/26 14:28:25;;;;;;;1.23;0.98;;;;;;;;;;4902565;29;20192;-83
2021/08/26 14:30:52;;;;;;;1.00;1.00;;;;;;;;;;4903498;29;20219;-85
2021/08/26 14:33:21;;;;;;;1.73;1.60;;;;;;;;;;4920462;29;20222;-83
2021/08/26 14:35:49;;;;;;;1.38;1.27;;;;;;;;;;4920425;29;20217;-82
2021/08/26 14:38:17;;;;;;;1.80;1.20;;;;;;;;;;4920510;29;20205;-83
2021/08/26 14:40:45;;;;;;;2.03;1.10;;;;;;;;;;4921260;29;20285;-84
2021/08/26 14:43:12;;;;;;;2.45;1.40;;;;;;;;;;4921703;29;20241;-85
2021/08/26 14:45:40;;;;;;;2.83;1.60;;;;;;;;;;4919823;29;20661;-82
2021/08/26 14:48:09;;;;;;;2.50;1.67;;;;;;;;;;4919125;29;20242;-82
2021/08/26 14:50:38;;;;;;;4.15;2.45;;;;;;;;;;4917664;29;20233;-84
2021/08/26 14:53:07;;;;;;;3.05;1.92;;;;;;;;;;4919296;29;20253;-84
2021/08/26 14:55:35;;;;;;;2.88;1.70;;;;;;;;;;4918021;29;20646;-84
2021/08/26 14:58:06;;;;;;;2.58;1.90;;;;;;;;;;4918683;29;20207;-83
2021/08/26 15:00:33;;;;;;;2.58;1.70;;;;;;;;;;4918343;29;20190;-83
2021/08/26 15:03:02;;;;;;;3.20;2.13;;;;;;;;;;4919433;29;20226;-83
2021/08/26 15:05:29;;;;;;;4.18;2.17;;;;;;;;;;4922796;29;20190;-84
2021/08/26 15:07:58;;;;;;;2.42;1.60;;;;;;;;;;4918395;29;20202;-83